Flight Track Log - Related Links

Times and Time Zones

All times are in EDT time to prevent confusion due to time zone crossing. See the USC110 flight status page for this flight to view local times or setup timezone preferences in your user account.

Time Position Orientation Groundspeed Altitude Reporting Facility
EDT Latitude Longitude Course Direction KTS MPH feet Rate Location/Type
Wed 12:08:00 AM 35.2081 -80.9528 317° Northwest 112 129 1,400  Level Atlanta Center
Wed 12:08:24 AM 35.2186 -80.9650 317° Northwest 122 140 2,100 1,357 Climbing Atlanta Center
Wed 12:09:24 AM 35.2461 -80.9742 345° North 104 120 3,300 1,134 Climbing Atlanta Center
Wed 12:11:08 AM 35.2944 -80.9928 343° North 113 130 5,200 1,171 Climbing Atlanta Center
Wed 12:12:08 AM 35.3261 -81.0094 337° Northwest 108 124 6,500 1,250 Climbing Atlanta Center
Wed 12:13:08 AM 35.3494 -81.0189 342° North 108 124 7,700 750 Climbing Atlanta Center
Wed 12:14:08 AM 35.3808 -81.0303 344° North 108 124 8,000 150 Climbing Atlanta Center
Wed 12:15:08 AM 35.4231 -81.0417 348° North 133 153 8,000  Level Atlanta Center
Wed 12:16:08 AM 35.4672 -81.0631 338° Northwest 157 181 8,000  Level Atlanta Center
Wed 12:17:08 AM 35.5117 -81.0817 341° North 167 192 8,000  Level Atlanta Center
Wed 12:18:08 AM 35.5558 -81.0981 343° North 167 192 8,000  Level Atlanta Center
Wed 12:19:08 AM 35.6000 -81.1144 343° North 167 192 8,000  Level Atlanta Center
Wed 12:20:08 AM 35.6442 -81.1358 339° North 167 192 8,000  Level Atlanta Center
Wed 12:21:08 AM 35.6886 -81.1519 344° North 172 198 8,000  Level Atlanta Center
Wed 12:22:08 AM 35.7328 -81.1708 341° North 172 198 8,000  Level Atlanta Center
Wed 12:23:08 AM 35.7769 -81.1872 343° North 172 198 8,000 50 Level Atlanta Center
Wed 12:24:08 AM 35.8211 -81.2036 341° North 172 198 8,100  Climbing Atlanta Center
Wed 12:25:08 AM 35.8653 -81.2228 341° North 172 198 8,000 -50 Descending Atlanta Center
Wed 12:26:08 AM 35.9094 -81.2417 341° North 172 198 8,000 50 Level Atlanta Center
Wed 12:27:08 AM 35.9497 -81.2583 341° North 172 198 8,100  Climbing Atlanta Center
Wed 12:28:08 AM 35.9939 -81.2772 341° North 167 192 8,000 -50 Descending Atlanta Center
Wed 12:29:08 AM 36.0400 -81.2936 344° North 172 198 8,000  Level Atlanta Center
Wed 12:30:08 AM 36.0864 -81.3128 342° North 172 198 8,000 50 Level Atlanta Center
Wed 12:31:08 AM 36.1328 -81.3317 342° North 172 198 8,100  Climbing Atlanta Center
Wed 12:32:08 AM 36.1789 -81.3506 342° North 172 198 8,000 -50 Descending Atlanta Center
Wed 12:33:08 AM 36.2211 -81.3672 342° North 172 198 8,000  Level Atlanta Center
Wed 12:34:08 AM 36.2717 -81.3889 341° North 172 198 8,000 50 Level Atlanta Center
Wed 12:35:08 AM 36.3158 -81.4081 341° North 172 198 8,100  Climbing Atlanta Center
Wed 12:36:08 AM 36.3578 -81.4247 342° North 172 198 8,000 -50 Descending Atlanta Center
Wed 12:37:08 AM 36.4019 -81.4439 341° North 172 198 8,000  Level Atlanta Center
Wed 12:38:08 AM 36.4461 -81.4578 346° North 172 198 8,000  Level Atlanta Center
Wed 12:39:08 AM 36.4883 -81.4772 340° North 167 192 8,000  Level Atlanta Center
Wed 12:40:08 AM 36.5325 -81.4939 343° North 167 192 8,000  Level Atlanta Center
Wed 12:41:08 AM 36.5744 -81.5131 340° North 167 192 8,000 50 Level Atlanta Center
Wed 12:42:08 AM 36.6186 -81.5300 343° North 167 192 8,100 50 Climbing Atlanta Center
Wed 12:43:08 AM 36.6608 -81.5467 342° North 167 192 8,100 -50 Level Atlanta Center
Wed 12:44:08 AM 36.7050 -81.5711 336° Northwest 167 192 8,000 -50 Descending Atlanta Center
Wed 12:45:08 AM 36.7492 -81.5881 343° North 167 192 8,000 50 Level Atlanta Center
Wed 12:46:08 AM 36.7953 -81.6072 342° North 173 199 8,100  Climbing Atlanta Center
Wed 12:47:08 AM 36.8394 -81.6292 338° Northwest 173 199 8,000  Descending Atlanta Center
Wed 12:48:37 AM 36.9108 -81.6542 344° North 179 206 8,100  Climbing Indianapolis Center
Wed 12:49:37 AM 36.9556 -81.6747 340° North 173 199 8,000 -50 Descending Indianapolis Center
Wed 12:50:38 AM 37.0047 -81.6939 343° North 180 207 8,000  Level Indianapolis Center
Wed 12:51:38 AM 37.0500 -81.7133 341° North 173 199 8,000  Level Indianapolis Center
Wed 12:52:39 AM 37.0953 -81.7322 342° North 170 196 8,000  Level Indianapolis Center
Wed 12:53:39 AM 37.1408 -81.7519 341° North 172 198 8,000  Level Indianapolis Center
Wed 12:54:40 AM 37.1867 -81.7711 342° North 174 200 8,000  Level Indianapolis Center
Wed 12:55:40 AM 37.2328 -81.7908 341° North 175 201 8,000  Level Indianapolis Center
Wed 12:56:41 AM 37.2783 -81.8106 341° North 172 198 8,000  Level Indianapolis Center
Wed 12:57:41 AM 37.3236 -81.8294 342° North 172 198 8,000  Level Indianapolis Center
Wed 12:58:41 AM 37.3689 -81.8483 342° North 171 197 8,000  Level Indianapolis Center
Wed 12:59:42 AM 37.4139 -81.8675 341° North 171 197 8,000  Level Indianapolis Center
Wed 01:00:42 AM 37.4597 -81.8881 340° North 174 200 8,000  Level Indianapolis Center
Wed 01:01:43 AM 37.5033 -81.9061 342° North 169 194 8,000  Level Indianapolis Center
Wed 01:02:43 AM 37.5475 -81.9239 342° North 168 193 8,000  Level Indianapolis Center
Wed 01:03:43 AM 37.5917 -81.9428 341° North 168 193 8,000  Level Indianapolis Center
Wed 01:04:44 AM 37.6367 -81.9622 341° North 170 196 8,000  Level Indianapolis Center
Wed 01:05:44 AM 37.6806 -81.9822 340° North 169 194 8,000  Level Indianapolis Center
Wed 01:06:45 AM 37.7250 -82.0006 342° North 169 194 8,000  Level Indianapolis Center
Wed 01:07:45 AM 37.7689 -82.0189 342° North 168 193 8,000 50 Level Indianapolis Center
Wed 01:08:45 AM 37.8117 -82.0383 340° North 165 190 8,100  Climbing Indianapolis Center
Wed 01:09:46 AM 37.8542 -82.0558 342° North 163 188 8,000 -50 Descending Indianapolis Center
Wed 01:10:46 AM 37.8978 -82.0747 341° North 166 191 8,000  Level Indianapolis Center
Wed 01:11:47 AM 37.9400 -82.0925 342° North 162 186 8,000  Level Indianapolis Center
Wed 01:12:47 AM 37.9839 -82.1125 340° North 165 190 8,000  Level Indianapolis Center
Wed 01:13:47 AM 38.0283 -82.1308 342° North 167 192 8,000  Level Indianapolis Center
Wed 01:14:48 AM 38.0733 -82.1506 341° North 169 194 8,000  Level Indianapolis Center
Wed 01:15:48 AM 38.1181 -82.1700 341° North 172 198 8,000  Level Indianapolis Center
Wed 01:16:49 AM 38.1625 -82.1886 342° North 170 196 8,000  Level Indianapolis Center
Wed 01:17:49 AM 38.2078 -82.2086 341° North 171 197 8,000  Level Indianapolis Center
Wed 01:18:49 AM 38.2522 -82.2269 342° North 169 194 8,000 -50 Level Indianapolis Center
Wed 01:19:50 AM 38.2964 -82.2469 340° North 169 194 7,900  Descending Indianapolis Center
Wed 01:20:50 AM 38.3419 -82.2656 342° North 171 197 8,000 50 Climbing Indianapolis Center
Wed 01:21:50 AM 38.3867 -82.2867 340° North 171 197 8,000  Level Indianapolis Center
Wed 01:22:51 AM 38.4314 -82.3061 341° North 170 196 8,000  Level Indianapolis Center
Wed 01:23:51 AM 38.4753 -82.3253 341° North 167 192 8,000  Level Indianapolis Center
Wed 01:24:51 AM 38.5211 -82.3444 342° North 171 197 8,000  Level Indianapolis Center
Wed 01:25:52 AM 38.5661 -82.3647 341° North 173 199 8,000  Level Indianapolis Center
Wed 01:26:52 AM 38.6114 -82.3844 341° North 173 199 8,000  Level Indianapolis Center
Wed 01:27:52 AM 38.6558 -82.4058 339° North 170 196 8,000  Level Indianapolis Center
Wed 01:28:53 AM 38.7028 -82.4250 342° North 176 203 8,000  Level Indianapolis Center
Wed 01:29:53 AM 38.7475 -82.4464 340° North 174 200 8,000 -50 Level Indianapolis Center
Wed 01:30:53 AM 38.7947 -82.4669 341° North 176 203 7,900  Descending Indianapolis Center
Wed 01:31:54 AM 38.8397 -82.4861 342° North 173 199 8,000 50 Climbing Indianapolis Center
Wed 01:32:54 AM 38.8858 -82.5069 341° North 175 201 8,000  Level Indianapolis Center
Wed 01:33:54 AM 38.9317 -82.5286 340° North 174 200 8,000  Level Indianapolis Center
Wed 01:34:55 AM 38.9781 -82.5497 341° North 176 203 8,000  Level Indianapolis Center
Wed 01:35:55 AM 39.0258 -82.5700 342° North 179 206 8,000  Level Indianapolis Center
Wed 01:36:55 AM 39.0725 -82.5886 343° North 177 204 8,000  Level Indianapolis Center
Wed 01:37:56 AM 39.1175 -82.6117 338° Northwest 175 201 8,000  Level Indianapolis Center
Wed 01:38:56 AM 39.1636 -82.6319 341° North 175 201 8,000  Level Indianapolis Center
Wed 01:39:56 AM 39.2106 -82.6531 341° North 174 200 8,000  Level Indianapolis Center
Wed 01:40:56 AM 39.2569 -82.6736 341° North 174 200 8,000  Level Indianapolis Center
Wed 01:41:53 AM 39.3031 -82.6967 339° North 173 199 8,000  Level Indianapolis Center
Wed 01:42:47 AM 39.3458 -82.7147 342° North 173 199 8,000  Level Indianapolis Center
Wed 01:43:48 AM 39.3906 -82.7358 340° North 172 198 8,000  Level Indianapolis Center
Wed 01:44:49 AM 39.4353 -82.7542 342° North 171 197 8,000 -446 Level Indianapolis Center
Wed 01:45:49 AM 39.4819 -82.7756 341° North 176 203 7,100 -992 Descending Indianapolis Center
Wed 01:46:50 AM 39.5369 -82.7981 342° North 194 223 6,000 -1,240 Descending Indianapolis Center
Wed 01:47:50 AM 39.5833 -82.8275 334° Northwest 193 222 4,600 -1,240 Descending Indianapolis Center
Wed 01:48:51 AM 39.6336 -82.8575 335° Northwest 194 223 3,500 -1,230 Descending Indianapolis Center
Wed 01:49:52 AM 39.6797 -82.8844 336° Northwest 220 253 2,100 -843 Descending Indianapolis Center
Wed 01:50:52 AM 39.7214 -82.9189 328° Northwest 171 197 1,800 -198 Descending Indianapolis Center
Wed 01:51:53 AM 39.7556 -82.9417 333° Northwest 135 155 1,700 -347 Descending Indianapolis Center
Wed 01:52:53 AM 39.7922 -82.9569 342° North 132 152 1,100 -333 Descending Indianapolis Center
Wed 01:53:59 AM 39.8211 -82.9303 35° Northeast 134 154 1,000 -91 Descending Indianapolis Center
Wed 01:55:00 AM 39.8138 -82.9278 339° North  Level Estimated

Login

Don't have an account? Register now (free) for customized features, flight alerts, and more!